WETTERDATEN

HEUTE
Time Temp. Taup. r.Fe. Windrich Windstärke Windböe Druck 1h Prec. 24h Prec.
00:02 -1.6 -2.2 95 167 0.3 0.8 995.5 0.0000 0.0000
00:07 -1.6 -2.2 95 184 0.3 0.8 995.6 0.0000 0.0000
00:27 -1.6 -2.2 95 172 0.3 1.1 995.6 0.0000 0.0000
00:32 -1.6 -2.1 96 135 0.3 0.8 995.5 0.0000 0.0000
00:43 -1.6 -2.1 96 90 0.3 0.8 995.6 0.0000 0.0000
00:52 -1.6 -2.1 96 155 0.3 0.8 995.5 0.0000 0.0000
01:02 -1.6 -2.1 96 173 0.3 1.1 995.6 0.0000 0.0000
01:07 -1.6 -2.1 96 135 0.3 0.8 995.7 0.0000 0.0000
01:18 -1.6 -2.1 96 0 0.3 1.1 996 0.0000 0.0000
01:28 -1.6 -2.1 96 135 0.3 0.8 996.1 0.0000 0.0000
01:43 -1.5 -2 96 23 0.3 1.1 996.3 0.0000 0.0000
01:53 -1.5 -2 96 198 0.3 0.8 996.5 0.0000 0.0000
02:03 -1.4 -1.9 96 174 0.3 1.1 996.7 0.0000 0.0000
02:13 -1.4 -1.9 96 135 0.3 0.8 996.7 0.0000 0.0000
02:24 -1.4 -1.9 96 45 0.3 0.8 996.8 0.0000 0.0000
02:34 -1.4 -1.9 96 171 0.3 0.8 996.8 0.0000 0.0000
02:43 -1.4 -1.9 96 194 0.3 0.8 997 0.0000 0.0000
02:53 -1.3 -1.8 96 171 0.3 1.4 997 0.0000 0.0000
03:04 -1.3 -1.8 96 180 0.3 1.1 997 0.0000 0.0000
03:17 -1.3 -1.8 96 141 0.3 0.8 997 0.0000 0.0000
03:27 -1.3 -1.8 96 144 0.3 0.8 997 0.0000 0.0000
03:37 -1.3 -1.8 96 176 0.3 0.8 997.1 0.0000 0.0000
03:47 -1.3 -1.8 96 90 0.3 0.8 997.1 0.0000 0.0000
03:58 -1.4 -1.9 96 142 0.3 0.8 997 0.0000 0.0000
04:03 -1.4 -1.9 96 90 0.3 1.1 997.1 0.0000 0.0000
04:12 -1.4 -1.9 96 173 0.3 0.8 997.3 0.0000 0.0000
04:22 -1.5 -2 96 180 0.3 0.8 997 0.0000 0.0000
04:33 -1.5 -2 96 135 0.3 0.8 996.8 0.0000 0.0000
04:45 -1.4 -1.9 96 270 0.3 0.8 996.7 0.0000 0.0000
04:55 -1.3 -1.7 97 191 0.3 1.1 996.9 0.0000 0.0000
05:05 -1.2 -1.6 97 161 0.3 1.1 997.2 0.0000 0.0000
05:14 -1.2 -1.6 97 35 0.3 1.1 997.6 0.0000 0.0000
05:23 -1.2 -1.6 97 90 0.3 0.8 997.8 0.0000 0.0000
05:33 -1.2 -1.6 97 135 0.3 0.8 998 0.0000 0.0000
05:44 -1.1 -1.5 97 153 0.3 1.1 998.2 0.0000 0.0000
05:54 -1.1 -1.5 97 135 0.3 0.8 998.2 0.0000 0.0000
06:04 -1.1 -1.5 97 158 0.3 1.1 998.3 0.0000 0.0000
06:14 -1.2 -1.6 97 135 0.3 0.8 998.4 0.0000 0.0000
06:24 -1.3 -1.8 96 336 0.3 1.1 998.5 0.0000 0.0000
06:34 -1.4 -1.9 96 164 0.3 1.4 998.4 0.0000 0.0000
06:44 -1.4 -1.9 96 159 0.3 1.4 998.4 0.0000 0.0000
06:55 -1.4 -1.8 97 175 0.3 1.1 998.5 0.0000 0.0000
07:05 -1.3 -1.7 97 169 0.3 1.1 998.4 0.0000 0.0000
07:14 -1.2 -1.6 97 177 0.3 1.4 998.5 0.0000 0.0000
07:24 -1.2 -1.6 97 163 0.3 1.1 998.4 0.0000 0.0000
07:35 -1.1 -1.5 97 147 0.3 0.8 998.5 0.0000 0.0000
07:44 -1.1 -1.5 97 0.3 0.8 998.5 0.0000 0.0000
07:52 -1 -1.4 97 90 0.3 1.4 999.7 0.0000 0.0000
08:02 -1 -1.4 97 135 0.8 1.7 999.8 0.0000 0.0000
08:13 -0.9 -1.3 97 135 0.3 1.1 999.8 0.0000 0.0000
08:23 -0.8 -1.2 97 164 0.8 1.7 1000 0.0000 0.0000
08:33 -0.6 -1 97 172 0.3 1.1 1000 0.0000 0.0000
08:43 -0.6 -1 97 189 0.8 1.7 1000.1 0.0000 0.0000
08:53 -0.5 -1 96 164 0.3 0.8 1000 0.0000 0.0000
09:03 -0.4 -0.9 96 165 0.3 1.1 1000.1 0.0000 0.0000
09:12 -0.2 -0.6 97 0.3 1.1 999.8 0.0000 0.0000
09:22 0 -0.5 96 198 0.3 1.4 997.7 0.0000 0.0000
09:32 0 -0.5 96 101 0.8 2.2 1000.3 0.0000 0.0000
09:43 0.1 -0.4 96 185 0.8 2.8 1000.3 0.0000 0.0000
09:53 0.3 -0.4 95 147 0.3 1.4 1000.5 0.0000 0.0000
10:03 0.5 -0.2 95 156 0.8 2.5 1000.8 0.0000 0.0000
10:13 0.4 -0.4 94 175 0.8 1.7 1000.5 0.0000 0.0000
10:23 0.3 -0.5 94 90 0.3 1.1 1000.8 0.0000 0.0000
10:33 0.2 -0.6 94 167 0.8 2.8 1001.3 0.0000 0.0000
10:43 0.3 -0.5 94 161 0.3 1.7 1001.2 0.0000 0.0000
10:54 0.4 -0.4 94 177 0.8 1.4 1001.2 0.0000 0.0000
10:59 0.4 -0.4 94 171 0.8 1.7 1001.2 0.0000 0.0000
11:08 0.6 -0.1 95 180 0.3 1.1 1000.8 0.0000 0.0000
11:18 0.9 0.2 95 192 0.3 1.1 1000.9 0.0000 0.0000
11:29 1.8 1.2 96 237 0.3 1.1 1001.2 0.0000 0.0000
11:39 2.4 1.5 94 225 0.3 1.1 1001.1 0.0000 0.0000
11:49 3.2 2.2 93 135 0.3 1.1 1000.8 0.0000 0.0000
12:03 4.5 2.7 88 215 0.8 1.7 1000.7 0.3030 0.3000
12:13 5.2 2.7 84 185 0.8 2.2 1001.2 1.2120 1.2000
12:23 4.4 1.4 81 190 0.8 1.4 1001.6 1.7170 1.7000
12:34 3.9 1.3 83 219 0.8 1.4 1001.8 1.9190 1.9000
12:43 3.5 1.1 84 196 0.8 1.7 1001.8 2.1210 2.1000
12:53 3.4 1.1 85 90 0.3 1.4 1001.9 2.1210 2.1000
13:04 2.9 0.6 85 355 0.8 1.7 1001.7 1.8180 2.1000
13:13 2.7 0.8 87 189 0.8 1.4 1001.9 1.2120 2.4000
13:23 2.7 0.8 87 200 0.3 1.1 1002.3 0.8080 2.5000
13:33 2.6 0.8 88 180 0.3 0.8 1002.9 0.6060 2.5000
13:44 2.4 0.6 88 333 0.3 1.1 1002.8 0.5050 2.6000
13:54 2.2 0.6 89 156 0.8 1.4 1002.5 0.6060 2.7000
14:03 2.2 0.6 89 225 0.3 1.7 1002.6 0.6060 2.7000
14:14 2.1 0.6 90 158 0.8 2.2 1002.6 0.3030 2.7000
14:26 2.3 0.8 90 221 0.3 0.8 1002.9 0.2020 2.7000
14:36 2.3 0.8 90 320 0.3 1.1 1003 0.2020 2.7000
14:46 2.3 0.8 90 303 0.8 1.7 1002.9 0.1010 2.7000
14:56 2.2 0.7 90 284 0.8 1.7 1002.8 0.0000 2.7000
15:06 2.1 0.6 90 270 0.3 1.1 1002 0.0000 2.7000
15:16 1.9 0.4 90 180 0.8 1.7 1001.9 0.0000 2.7000
15:26 1.7 0.2 90 334 0.8 2.2 1002.2 0.0000 2.7000
15:37 1.6 0.3 91 349 1.1 3.3 1002.9 0.0000 2.7000
15:46 1.4 0.1 91 167 0.8 2.2 1003.1 0.0000 2.7000
15:56 1.1 -0.2 91 315 0.8 1.4 1003.4 0.0000 2.7000
16:06 0.9 -0.2 92 337 0.8 1.4 1004.2 0.0000 2.7000
16:17 0.8 -0.3 92 170 0.8 1.7 1004.6 0.0000 2.7000
16:27 0.7 -0.3 93 328 0.8 1.4 1004.6 0.0000 2.7000
16:37 0.6 -0.4 93 326 0.8 1.4 1004.7 0.0000 2.7000
16:47 0.6 -0.4 93 270 0.3 1.1 1004.7 0.0000 2.7000
16:57 0.6 -0.2 94 197 0.8 1.7 1004.9 0.0000 2.7000
17:07 0.6 -0.2 94 331 0.8 1.4 1004.8 0.0000 2.7000
17:17 0.4 -0.4 94 270 0.3 1.1 1005.1 0.0000 2.7000
17:28 0.2 -0.7 93 315 0.3 1.1 1005.3 0.0000 2.7000
17:37 0 -0.7 94 349 0.8 1.4 1005.7 0.0000 2.7000
17:47 -0.2 -0.9 94 350 0.3 1.1 1006.4 0.0000 2.7000
17:58 -0.4 -1.1 94 303 0.3 0.8 1006.6 0.0000 2.7000
18:08 -0.5 -1.2 94 336 0.3 1.4 1006.7 0.0000 2.7000
18:18 -0.5 -1.1 95 198 0.3 1.1 1007 0.0000 2.7000
18:27 -0.7 -1.3 95 225 0.3 1.4 1007.3 0.0000 2.7000
18:38 -0.8 -1.4 95 315 0.3 1.1 1007.6 0.0000 2.7000
18:48 -0.9 -1.5 95 225 0.3 1.4 1007.7 0.0000 2.7000
18:58 -0.9 -1.5 95 190 0.3 1.4 1007.9 0.0000 2.7000
19:08 -1.1 -1.7 95 270 0.3 0.8 1007.9 0.0000 2.7000
19:19 -1.3 -1.9 95 318 0.8 1.1 1008.1 0.0000 2.7000
19:28 -1.4 -2 95 188 0.8 1.1 1008.2 0.0000 2.7000
19:38 -1.5 -2.1 95 338 0.3 1.1 1008.1 0.0000 2.7000
19:49 -1.6 -2.2 95 188 0.3 0.8 1008.2 0.0000 2.7000
19:59 -1.7 -2.3 95 270 0.3 1.1 1008.4 0.0000 2.7000
20:09 -2 -2.6 95 315 0.3 1.1 1008.7 0.0000 2.7000
20:19 -2.2 -2.8 95 270 0.3 0.8 1008.9 0.0000 2.7000
20:29 -2.4 -3 95 319 0.3 1.1 1008.9 0.0000 2.7000
20:39 -2.5 -3.1 95 270 0.3 1.1 1009 0.0000 2.7000
20:49 -2.7 -3.3 95 315 0.3 0.8 1009 0.0000 2.7000
21:00 -2.8 -3.4 95 187 0.3 0.8 1009.2 0.0000 2.7000
21:10 -2.8 -3.4 95 165 0.3 1.1 1009.4 0.0000 2.7000
21:19 -2.8 -3.3 96 203 0.3 1.1 1009.5 0.0000 2.7000
21:40 -2.7 -3.2 96 90 0.3 1.1 1010 0.0000 2.7000
21:50 -2.6 -3.1 96 180 0.3 1.1 1010.2 0.0000 2.7000
22:00 -2.5 -3 96 225 0.3 1.1 1010.4 0.0000 2.7000
22:10 -2.3 -2.7 97 190 0.3 1.1 1010.6 0.0000 2.7000
22:20 -2.2 -2.6 97 194 0.3 1.1 1010.7 0.0000 2.7000
22:30 -2.1 -2.5 97 225 0.3 1.1 1010.7 0.0000 2.7000
22:40 -1.9 -2.3 97 135 0.3 0.8 1011 0.0000 2.7000
22:51 -1.7 -2.1 97 194 0.3 1.1 1011.3 0.0000 2.7000

TAGESSTATISTIK

2019-12-14
TEMPERATUR
MITTEL
-0.3
MAXIMUM
5.2
12:13
MINIMUM
-2.8
21:00
LUFTDRUCK
MITTEL
1001.8
MAXIMUM
1011.3
22:51
MINIMUM
995.5
00:02
TAUPUNKT
MITTEL
-1.1
MAXIMUM
2.7
12:03
MINIMUM
-3.4
21:00
FEUCHTIGKEIT
MITTEL
94
MAXIMUM
97
04:55
MINIMUM
81
12:23
WINDSTÄRKE
MITTEL
0.4
MAXIMUM
1.1
15:37
WINDBÖE
MITTEL
1.2
MAXIMUM
3.3
15:37
WINDRICHTUNG
VORHERRSCHENDE
S
42.6%
N
4.4
NO
2.2
O
6.6
SO
15.4
S
42.6
SW
7.4
W
6.6
NW
13.2
NIEDERSCHLAG
REGEN STUNDE
2.1
REGEN TAG
2.7
TEMPERATUR (°C)
MINIMUM
-2.8
MAXIMUM
5.2
MITTEL
-0.3
LUFTDRUCK (hpa)
MINIMUM
995.5
MAXIMUM
1011.3
MITTEL
1001.8
MESSGERÄT